KGHB

Salsa

Salsa, Louisiana, USA
METAR KGHB 221355Z AUTO 10014G21KT 10SM SCT050 BKN075 26/19 A3011 RMK A01
Observed Flight Rules
Oct-22 @ 13:55 UTC (24 minutes ago) Visual Flight Rules
Wind Visibility Clouds
100° at 14 knots
 Gusting to 21 knots
10 miles
  • Scattered at 5,000' AGL
  • Broken at 7,500' AGL
Temperatures Readings
Current 26°C / 79°F
Dewpoint 19°C / 66°F
Humidity 65%
Altimeter 30.11" Hg
Pressure 1020 hPa
Elevation 30
METAR KGHB 221355Z AUTO 10014G21KT 10SM SCT050 BKN075 26/19 A3011 RMK A01
Observed Flight Rules
Oct-22 @ 13:55 UTC
(24 minutes ago)
VFR
Wind Visibility
100° at 14 knots
 Gusting to 21 knots
10 miles
Clouds
  • Scattered at 5,000' AGL
  • Broken at 7,500' AGL
Temperature Dewpoint
26°C / 79°F 19°C / 66°F
Humidity Altimeter Pressure
65% 30.11" Hg 1020 hPa